sensor_id;sensor_type;location;lat;lon;timestamp;P1;durP1;ratioP1;P2;durP2;ratioP2
21046;SDS011;10682;50.874;3.656;2023-05-09T00:01:15;21.70;;;10.30;;
21046;SDS011;10682;50.874;3.656;2023-05-09T00:03:42;16.67;;;10.03;;
21046;SDS011;10682;50.874;3.656;2023-05-09T00:06:09;18.83;;;10.10;;
21046;SDS011;10682;50.874;3.656;2023-05-09T00:08:36;17.13;;;10.23;;
21046;SDS011;10682;50.874;3.656;2023-05-09T00:11:04;17.80;;;9.95;;
21046;SDS011;10682;50.874;3.656;2023-05-09T00:13:31;22.27;;;10.20;;
21046;SDS011;10682;50.874;3.656;2023-05-09T00:15:59;18.53;;;10.00;;
21046;SDS011;10682;50.874;3.656;2023-05-09T00:18:26;20.58;;;10.02;;
21046;SDS011;10682;50.874;3.656;2023-05-09T00:20:56;14.97;;;9.53;;
21046;SDS011;10682;50.874;3.656;2023-05-09T00:23:23;18.73;;;10.00;;
21046;SDS011;10682;50.874;3.656;2023-05-09T00:25:50;18.23;;;10.37;;
21046;SDS011;10682;50.874;3.656;2023-05-09T00:28:17;17.33;;;9.80;;
21046;SDS011;10682;50.874;3.656;2023-05-09T00:30:45;16.20;;;9.83;;
21046;SDS011;10682;50.874;3.656;2023-05-09T00:33:12;19.33;;;10.15;;
21046;SDS011;10682;50.874;3.656;2023-05-09T00:35:39;16.48;;;9.68;;
21046;SDS011;10682;50.874;3.656;2023-05-09T00:38:06;18.37;;;10.17;;
21046;SDS011;10682;50.874;3.656;2023-05-09T00:40:33;17.25;;;10.00;;
21046;SDS011;10682;50.874;3.656;2023-05-09T00:43:00;15.85;;;9.38;;
21046;SDS011;10682;50.874;3.656;2023-05-09T00:45:27;18.80;;;10.40;;
21046;SDS011;10682;50.874;3.656;2023-05-09T00:47:54;18.27;;;9.87;;
21046;SDS011;10682;50.874;3.656;2023-05-09T00:50:21;18.75;;;10.95;;
21046;SDS011;10682;50.874;3.656;2023-05-09T00:52:49;16.45;;;9.75;;
21046;SDS011;10682;50.874;3.656;2023-05-09T00:55:17;14.07;;;9.60;;
21046;SDS011;10682;50.874;3.656;2023-05-09T00:57:45;19.10;;;10.10;;
21046;SDS011;10682;50.874;3.656;2023-05-09T01:00:12;17.98;;;10.40;;
21046;SDS011;10682;50.874;3.656;2023-05-09T01:02:40;17.40;;;9.90;;
21046;SDS011;10682;50.874;3.656;2023-05-09T01:05:10;18.92;;;9.32;;
21046;SDS011;10682;50.874;3.656;2023-05-09T01:07:59;17.98;;;9.93;;
21046;SDS011;10682;50.874;3.656;2023-05-09T01:11:03;16.53;;;9.30;;
21046;SDS011;10682;50.874;3.656;2023-05-09T01:22:06;13.67;;;8.70;;
21046;SDS011;10682;50.874;3.656;2023-05-09T01:30:33;16.13;;;8.97;;
21046;SDS011;10682;50.874;3.656;2023-05-09T01:33:05;20.03;;;10.30;;
21046;SDS011;10682;50.874;3.656;2023-05-09T01:35:34;16.67;;;10.07;;
21046;SDS011;10682;50.874;3.656;2023-05-09T01:38:14;18.73;;;10.82;;
21046;SDS011;10682;50.874;3.656;2023-05-09T01:40:46;15.48;;;10.38;;
21046;SDS011;10682;50.874;3.656;2023-05-09T01:43:18;15.20;;;9.83;;
21046;SDS011;10682;50.874;3.656;2023-05-09T01:45:48;16.77;;;9.63;;
21046;SDS011;10682;50.874;3.656;2023-05-09T01:48:18;20.97;;;10.53;;
21046;SDS011;10682;50.874;3.656;2023-05-09T01:50:46;24.70;;;10.83;;
21046;SDS011;10682;50.874;3.656;2023-05-09T01:53:14;15.60;;;10.63;;
21046;SDS011;10682;50.874;3.656;2023-05-09T01:55:43;17.77;;;10.70;;
21046;SDS011;10682;50.874;3.656;2023-05-09T01:58:11;20.37;;;11.03;;
21046;SDS011;10682;50.874;3.656;2023-05-09T02:00:38;19.83;;;10.80;;
21046;SDS011;10682;50.874;3.656;2023-05-09T02:03:06;20.63;;;11.57;;
21046;SDS011;10682;50.874;3.656;2023-05-09T02:05:34;19.97;;;10.97;;
21046;SDS011;10682;50.874;3.656;2023-05-09T02:08:02;21.13;;;11.48;;
21046;SDS011;10682;50.874;3.656;2023-05-09T02:10:30;18.73;;;11.03;;
21046;SDS011;10682;50.874;3.656;2023-05-09T02:12:58;24.03;;;11.93;;
21046;SDS011;10682;50.874;3.656;2023-05-09T02:15:25;18.40;;;11.57;;
21046;SDS011;10682;50.874;3.656;2023-05-09T02:17:52;20.57;;;11.63;;
21046;SDS011;10682;50.874;3.656;2023-05-09T02:20:19;19.20;;;11.20;;
21046;SDS011;10682;50.874;3.656;2023-05-09T02:22:47;15.83;;;10.47;;
21046;SDS011;10682;50.874;3.656;2023-05-09T02:25:14;24.98;;;11.43;;
21046;SDS011;10682;50.874;3.656;2023-05-09T02:27:45;16.90;;;11.85;;
21046;SDS011;10682;50.874;3.656;2023-05-09T02:30:16;18.73;;;10.53;;
21046;SDS011;10682;50.874;3.656;2023-05-09T02:32:51;17.77;;;11.13;;
21046;SDS011;10682;50.874;3.656;2023-05-09T02:35:25;20.25;;;11.57;;
21046;SDS011;10682;50.874;3.656;2023-05-09T02:37:53;20.23;;;11.50;;
21046;SDS011;10682;50.874;3.656;2023-05-09T02:40:21;17.83;;;10.87;;
21046;SDS011;10682;50.874;3.656;2023-05-09T02:42:48;19.70;;;10.82;;
21046;SDS011;10682;50.874;3.656;2023-05-09T02:45:15;20.03;;;11.37;;
21046;SDS011;10682;50.874;3.656;2023-05-09T02:47:42;20.03;;;12.10;;
21046;SDS011;10682;50.874;3.656;2023-05-09T02:50:09;20.23;;;11.77;;
21046;SDS011;10682;50.874;3.656;2023-05-09T02:52:37;19.95;;;12.30;;
21046;SDS011;10682;50.874;3.656;2023-05-09T02:55:04;22.20;;;12.53;;
21046;SDS011;10682;50.874;3.656;2023-05-09T02:57:32;20.23;;;11.20;;
21046;SDS011;10682;50.874;3.656;2023-05-09T02:59:59;17.53;;;11.07;;
21046;SDS011;10682;50.874;3.656;2023-05-09T03:02:26;17.33;;;11.55;;
21046;SDS011;10682;50.874;3.656;2023-05-09T03:04:53;18.23;;;11.18;;
21046;SDS011;10682;50.874;3.656;2023-05-09T03:07:20;18.45;;;11.23;;
21046;SDS011;10682;50.874;3.656;2023-05-09T03:09:47;17.77;;;10.75;;
21046;SDS011;10682;50.874;3.656;2023-05-09T03:12:14;16.83;;;11.23;;
21046;SDS011;10682;50.874;3.656;2023-05-09T03:14:41;16.60;;;11.03;;
21046;SDS011;10682;50.874;3.656;2023-05-09T03:17:08;21.65;;;11.73;;
21046;SDS011;10682;50.874;3.656;2023-05-09T03:19:36;24.35;;;11.52;;
21046;SDS011;10682;50.874;3.656;2023-05-09T03:22:03;19.70;;;11.50;;
21046;SDS011;10682;50.874;3.656;2023-05-09T03:24:30;20.77;;;11.80;;
21046;SDS011;10682;50.874;3.656;2023-05-09T03:26:57;17.13;;;10.90;;
21046;SDS011;10682;50.874;3.656;2023-05-09T03:29:24;21.30;;;12.63;;
21046;SDS011;10682;50.874;3.656;2023-05-09T03:31:51;21.88;;;11.93;;
21046;SDS011;10682;50.874;3.656;2023-05-09T03:34:18;16.48;;;10.45;;
21046;SDS011;10682;50.874;3.656;2023-05-09T03:36:45;18.93;;;11.03;;
21046;SDS011;10682;50.874;3.656;2023-05-09T03:39:12;22.03;;;11.70;;
21046;SDS011;10682;50.874;3.656;2023-05-09T03:41:39;18.87;;;11.47;;
21046;SDS011;10682;50.874;3.656;2023-05-09T03:44:07;22.07;;;11.67;;
21046;SDS011;10682;50.874;3.656;2023-05-09T03:46:33;16.60;;;11.13;;
21046;SDS011;10682;50.874;3.656;2023-05-09T03:49:00;17.87;;;10.83;;
21046;SDS011;10682;50.874;3.656;2023-05-09T03:51:29;22.20;;;10.40;;
21046;SDS011;10682;50.874;3.656;2023-05-09T03:53:57;20.70;;;10.57;;
21046;SDS011;10682;50.874;3.656;2023-05-09T03:56:24;18.73;;;9.77;;
21046;SDS011;10682;50.874;3.656;2023-05-09T03:58:51;20.67;;;10.73;;
21046;SDS011;10682;50.874;3.656;2023-05-09T04:01:18;16.23;;;10.77;;
21046;SDS011;10682;50.874;3.656;2023-05-09T04:03:45;18.43;;;10.90;;
21046;SDS011;10682;50.874;3.656;2023-05-09T04:06:13;22.33;;;12.65;;
21046;SDS011;10682;50.874;3.656;2023-05-09T04:08:40;17.23;;;11.53;;
21046;SDS011;10682;50.874;3.656;2023-05-09T04:11:08;21.33;;;11.60;;
21046;SDS011;10682;50.874;3.656;2023-05-09T04:13:35;19.87;;;11.90;;
21046;SDS011;10682;50.874;3.656;2023-05-09T04:16:02;17.37;;;11.27;;
21046;SDS011;10682;50.874;3.656;2023-05-09T04:18:29;17.35;;;11.02;;
21046;SDS011;10682;50.874;3.656;2023-05-09T04:20:56;18.43;;;10.93;;
21046;SDS011;10682;50.874;3.656;2023-05-09T04:23:23;17.80;;;11.35;;
21046;SDS011;10682;50.874;3.656;2023-05-09T04:25:50;18.23;;;11.57;;
21046;SDS011;10682;50.874;3.656;2023-05-09T04:28:19;18.65;;;11.45;;
21046;SDS011;10682;50.874;3.656;2023-05-09T04:30:46;19.07;;;11.83;;
21046;SDS011;10682;50.874;3.656;2023-05-09T04:33:13;17.37;;;10.87;;
21046;SDS011;10682;50.874;3.656;2023-05-09T04:35:40;17.10;;;11.10;;
21046;SDS011;10682;50.874;3.656;2023-05-09T04:38:07;19.33;;;12.02;;
21046;SDS011;10682;50.874;3.656;2023-05-09T04:40:34;18.07;;;11.23;;
21046;SDS011;10682;50.874;3.656;2023-05-09T04:43:01;21.53;;;11.60;;
21046;SDS011;10682;50.874;3.656;2023-05-09T04:45:29;22.83;;;12.57;;
21046;SDS011;10682;50.874;3.656;2023-05-09T04:47:56;18.67;;;12.18;;
21046;SDS011;10682;50.874;3.656;2023-05-09T04:50:24;18.40;;;12.27;;
21046;SDS011;10682;50.874;3.656;2023-05-09T04:52:51;17.47;;;11.80;;
21046;SDS011;10682;50.874;3.656;2023-05-09T04:55:18;20.87;;;12.00;;
21046;SDS011;10682;50.874;3.656;2023-05-09T04:57:45;18.80;;;11.90;;
21046;SDS011;10682;50.874;3.656;2023-05-09T05:00:12;20.70;;;11.63;;
21046;SDS011;10682;50.874;3.656;2023-05-09T05:02:40;16.85;;;10.70;;
21046;SDS011;10682;50.874;3.656;2023-05-09T05:05:07;20.63;;;11.53;;
21046;SDS011;10682;50.874;3.656;2023-05-09T05:07:49;20.70;;;11.37;;
21046;SDS011;10682;50.874;3.656;2023-05-09T05:10:16;20.20;;;11.20;;
21046;SDS011;10682;50.874;3.656;2023-05-09T05:12:44;24.20;;;12.50;;
21046;SDS011;10682;50.874;3.656;2023-05-09T05:15:11;22.07;;;12.27;;
21046;SDS011;10682;50.874;3.656;2023-05-09T05:17:39;18.50;;;11.60;;
21046;SDS011;10682;50.874;3.656;2023-05-09T05:20:06;15.83;;;11.50;;
21046;SDS011;10682;50.874;3.656;2023-05-09T05:22:35;20.43;;;11.33;;
21046;SDS011;10682;50.874;3.656;2023-05-09T05:25:02;19.30;;;12.07;;
21046;SDS011;10682;50.874;3.656;2023-05-09T05:27:30;17.13;;;11.27;;
21046;SDS011;10682;50.874;3.656;2023-05-09T05:29:57;16.33;;;11.23;;
21046;SDS011;10682;50.874;3.656;2023-05-09T05:32:24;18.53;;;11.57;;
21046;SDS011;10682;50.874;3.656;2023-05-09T05:34:51;19.90;;;11.50;;
21046;SDS011;10682;50.874;3.656;2023-05-09T05:37:18;16.43;;;11.07;;
21046;SDS011;10682;50.874;3.656;2023-05-09T05:39:45;18.30;;;11.23;;
21046;SDS011;10682;50.874;3.656;2023-05-09T05:42:12;18.57;;;11.67;;
21046;SDS011;10682;50.874;3.656;2023-05-09T05:44:39;21.90;;;11.73;;
21046;SDS011;10682;50.874;3.656;2023-05-09T05:47:07;22.20;;;12.20;;
21046;SDS011;10682;50.874;3.656;2023-05-09T05:49:33;19.20;;;11.30;;
21046;SDS011;10682;50.874;3.656;2023-05-09T05:52:00;18.33;;;11.47;;
21046;SDS011;10682;50.874;3.656;2023-05-09T05:54:28;18.10;;;12.57;;
21046;SDS011;10682;50.874;3.656;2023-05-09T05:56:55;23.13;;;12.37;;
21046;SDS011;10682;50.874;3.656;2023-05-09T05:59:21;21.37;;;12.10;;
21046;SDS011;10682;50.874;3.656;2023-05-09T06:01:48;20.63;;;13.10;;
21046;SDS011;10682;50.874;3.656;2023-05-09T06:04:16;25.47;;;13.10;;
21046;SDS011;10682;50.874;3.656;2023-05-09T06:06:43;26.07;;;13.43;;
21046;SDS011;10682;50.874;3.656;2023-05-09T06:09:11;24.60;;;13.03;;
21046;SDS011;10682;50.874;3.656;2023-05-09T06:11:37;20.53;;;11.93;;
21046;SDS011;10682;50.874;3.656;2023-05-09T06:14:04;20.23;;;12.50;;
21046;SDS011;10682;50.874;3.656;2023-05-09T06:16:31;22.67;;;12.63;;
21046;SDS011;10682;50.874;3.656;2023-05-09T06:18:59;15.30;;;11.17;;
21046;SDS011;10682;50.874;3.656;2023-05-09T06:21:26;19.00;;;11.63;;
21046;SDS011;10682;50.874;3.656;2023-05-09T06:23:52;19.33;;;12.07;;
21046;SDS011;10682;50.874;3.656;2023-05-09T06:26:35;22.80;;;11.90;;
21046;SDS011;10682;50.874;3.656;2023-05-09T06:29:02;20.70;;;12.20;;
21046;SDS011;10682;50.874;3.656;2023-05-09T06:31:31;22.37;;;11.93;;
21046;SDS011;10682;50.874;3.656;2023-05-09T06:34:03;20.58;;;11.40;;
21046;SDS011;10682;50.874;3.656;2023-05-09T06:36:31;20.97;;;12.27;;
21046;SDS011;10682;50.874;3.656;2023-05-09T06:38:59;20.70;;;10.97;;
21046;SDS011;10682;50.874;3.656;2023-05-09T06:41:26;22.77;;;11.57;;
21046;SDS011;10682;50.874;3.656;2023-05-09T06:43:53;16.53;;;10.90;;
21046;SDS011;10682;50.874;3.656;2023-05-09T06:46:20;15.33;;;10.67;;
21046;SDS011;10682;50.874;3.656;2023-05-09T06:48:47;22.20;;;10.90;;
21046;SDS011;10682;50.874;3.656;2023-05-09T06:51:14;16.50;;;10.53;;
21046;SDS011;10682;50.874;3.656;2023-05-09T06:53:41;18.27;;;11.17;;
21046;SDS011;10682;50.874;3.656;2023-05-09T06:56:08;19.07;;;10.30;;
21046;SDS011;10682;50.874;3.656;2023-05-09T06:58:35;19.87;;;10.00;;
21046;SDS011;10682;50.874;3.656;2023-05-09T07:01:02;17.73;;;10.63;;
21046;SDS011;10682;50.874;3.656;2023-05-09T07:03:29;21.90;;;11.37;;
21046;SDS011;10682;50.874;3.656;2023-05-09T07:05:56;19.90;;;11.03;;
21046;SDS011;10682;50.874;3.656;2023-05-09T07:08:25;19.70;;;10.80;;
21046;SDS011;10682;50.874;3.656;2023-05-09T07:10:52;19.55;;;11.82;;
21046;SDS011;10682;50.874;3.656;2023-05-09T07:13:19;16.07;;;10.40;;
21046;SDS011;10682;50.874;3.656;2023-05-09T07:15:46;18.70;;;11.33;;
21046;SDS011;10682;50.874;3.656;2023-05-09T07:18:13;19.43;;;11.73;;
21046;SDS011;10682;50.874;3.656;2023-05-09T07:20:40;24.00;;;12.03;;
21046;SDS011;10682;50.874;3.656;2023-05-09T07:23:07;19.37;;;11.23;;
21046;SDS011;10682;50.874;3.656;2023-05-09T07:25:34;18.60;;;12.57;;
21046;SDS011;10682;50.874;3.656;2023-05-09T07:28:02;20.70;;;11.48;;
21046;SDS011;10682;50.874;3.656;2023-05-09T07:30:29;21.27;;;12.27;;
21046;SDS011;10682;50.874;3.656;2023-05-09T07:32:55;18.50;;;11.20;;
21046;SDS011;10682;50.874;3.656;2023-05-09T07:35:23;21.67;;;10.37;;
21046;SDS011;10682;50.874;3.656;2023-05-09T07:37:49;18.17;;;10.77;;
21046;SDS011;10682;50.874;3.656;2023-05-09T07:40:16;14.63;;;10.27;;
21046;SDS011;10682;50.874;3.656;2023-05-09T07:42:44;17.83;;;9.23;;
21046;SDS011;10682;50.874;3.656;2023-05-09T07:45:15;14.98;;;8.27;;
21046;SDS011;10682;50.874;3.656;2023-05-09T07:47:44;12.67;;;8.57;;
21046;SDS011;10682;50.874;3.656;2023-05-09T07:50:11;13.73;;;7.53;;
21046;SDS011;10682;50.874;3.656;2023-05-09T07:52:38;15.30;;;7.73;;
21046;SDS011;10682;50.874;3.656;2023-05-09T07:55:05;13.37;;;7.70;;
21046;SDS011;10682;50.874;3.656;2023-05-09T07:57:32;13.47;;;7.73;;
21046;SDS011;10682;50.874;3.656;2023-05-09T07:59:59;13.57;;;7.60;;
21046;SDS011;10682;50.874;3.656;2023-05-09T08:02:26;12.67;;;7.90;;
21046;SDS011;10682;50.874;3.656;2023-05-09T08:04:53;16.00;;;8.70;;
21046;SDS011;10682;50.874;3.656;2023-05-09T08:07:20;14.00;;;8.33;;
21046;SDS011;10682;50.874;3.656;2023-05-09T08:09:47;16.73;;;8.57;;
21046;SDS011;10682;50.874;3.656;2023-05-09T08:12:14;12.57;;;8.43;;
21046;SDS011;10682;50.874;3.656;2023-05-09T08:14:41;13.87;;;8.07;;
21046;SDS011;10682;50.874;3.656;2023-05-09T08:17:08;16.03;;;7.93;;
21046;SDS011;10682;50.874;3.656;2023-05-09T08:19:35;14.80;;;8.50;;
21046;SDS011;10682;50.874;3.656;2023-05-09T08:22:02;10.67;;;7.50;;
21046;SDS011;10682;50.874;3.656;2023-05-09T08:24:29;11.03;;;6.77;;
21046;SDS011;10682;50.874;3.656;2023-05-09T08:26:57;11.67;;;6.70;;
21046;SDS011;10682;50.874;3.656;2023-05-09T08:29:25;11.57;;;6.80;;
21046;SDS011;10682;50.874;3.656;2023-05-09T08:31:52;13.27;;;6.50;;
21046;SDS011;10682;50.874;3.656;2023-05-09T08:34:19;12.67;;;6.43;;
21046;SDS011;10682;50.874;3.656;2023-05-09T08:36:46;15.53;;;6.67;;
21046;SDS011;10682;50.874;3.656;2023-05-09T08:39:13;10.43;;;6.23;;
21046;SDS011;10682;50.874;3.656;2023-05-09T08:41:40;12.10;;;6.90;;
21046;SDS011;10682;50.874;3.656;2023-05-09T08:44:08;10.37;;;6.00;;
21046;SDS011;10682;50.874;3.656;2023-05-09T08:46:37;8.60;;;5.93;;
21046;SDS011;10682;50.874;3.656;2023-05-09T08:49:08;12.33;;;5.63;;
21046;SDS011;10682;50.874;3.656;2023-05-09T08:51:36;12.00;;;5.50;;
21046;SDS011;10682;50.874;3.656;2023-05-09T08:54:05;6.67;;;4.43;;
21046;SDS011;10682;50.874;3.656;2023-05-09T08:56:32;7.93;;;4.47;;
21046;SDS011;10682;50.874;3.656;2023-05-09T08:59:00;10.33;;;4.70;;
21046;SDS011;10682;50.874;3.656;2023-05-09T09:01:32;11.13;;;4.77;;
21046;SDS011;10682;50.874;3.656;2023-05-09T09:04:04;10.23;;;4.30;;
21046;SDS011;10682;50.874;3.656;2023-05-09T09:06:33;7.60;;;4.10;;
21046;SDS011;10682;50.874;3.656;2023-05-09T09:09:01;9.10;;;3.90;;
21046;SDS011;10682;50.874;3.656;2023-05-09T09:11:31;6.43;;;4.30;;
21046;SDS011;10682;50.874;3.656;2023-05-09T09:14:00;8.30;;;4.30;;
21046;SDS011;10682;50.874;3.656;2023-05-09T09:16:37;7.47;;;4.83;;
21046;SDS011;10682;50.874;3.656;2023-05-09T09:19:10;10.00;;;5.37;;
21046;SDS011;10682;50.874;3.656;2023-05-09T09:21:40;7.57;;;4.50;;
21046;SDS011;10682;50.874;3.656;2023-05-09T09:24:09;10.30;;;5.40;;
21046;SDS011;10682;50.874;3.656;2023-05-09T09:26:45;10.53;;;4.93;;
21046;SDS011;10682;50.874;3.656;2023-05-09T09:29:15;10.43;;;5.03;;
21046;SDS011;10682;50.874;3.656;2023-05-09T09:31:44;8.20;;;5.60;;
21046;SDS011;10682;50.874;3.656;2023-05-09T09:34:18;9.83;;;5.80;;
21046;SDS011;10682;50.874;3.656;2023-05-09T09:36:47;8.13;;;5.50;;
21046;SDS011;10682;50.874;3.656;2023-05-09T09:39:15;8.73;;;5.83;;
21046;SDS011;10682;50.874;3.656;2023-05-09T09:41:42;9.63;;;6.20;;
21046;SDS011;10682;50.874;3.656;2023-05-09T09:44:13;8.73;;;5.30;;
21046;SDS011;10682;50.874;3.656;2023-05-09T09:46:45;8.27;;;5.60;;
21046;SDS011;10682;50.874;3.656;2023-05-09T09:49:17;8.60;;;5.10;;
21046;SDS011;10682;50.874;3.656;2023-05-09T09:51:50;7.23;;;5.27;;
21046;SDS011;10682;50.874;3.656;2023-05-09T09:54:18;8.03;;;5.00;;
21046;SDS011;10682;50.874;3.656;2023-05-09T09:56:47;8.18;;;5.00;;
21046;SDS011;10682;50.874;3.656;2023-05-09T09:59:22;9.83;;;5.63;;
21046;SDS011;10682;50.874;3.656;2023-05-09T10:04:34;8.43;;;5.47;;
21046;SDS011;10682;50.874;3.656;2023-05-09T10:07:04;7.80;;;5.27;;
21046;SDS011;10682;50.874;3.656;2023-05-09T10:09:39;9.77;;;5.47;;
21046;SDS011;10682;50.874;3.656;2023-05-09T10:12:07;13.03;;;5.33;;
21046;SDS011;10682;50.874;3.656;2023-05-09T10:14:35;7.33;;;5.17;;
21046;SDS011;10682;50.874;3.656;2023-05-09T10:17:04;9.03;;;6.17;;
21046;SDS011;10682;50.874;3.656;2023-05-09T10:19:31;9.07;;;6.13;;
21046;SDS011;10682;50.874;3.656;2023-05-09T10:22:07;9.10;;;6.40;;
21046;SDS011;10682;50.874;3.656;2023-05-09T10:24:41;10.57;;;6.43;;
21046;SDS011;10682;50.874;3.656;2023-05-09T10:27:18;10.30;;;6.77;;
21046;SDS011;10682;50.874;3.656;2023-05-09T10:29:48;9.43;;;6.20;;
21046;SDS011;10682;50.874;3.656;2023-05-09T10:32:22;8.33;;;5.83;;
21046;SDS011;10682;50.874;3.656;2023-05-09T10:34:59;8.50;;;4.50;;
21046;SDS011;10682;50.874;3.656;2023-05-09T10:37:32;6.60;;;4.20;;
21046;SDS011;10682;50.874;3.656;2023-05-09T10:40:01;5.17;;;3.80;;
21046;SDS011;10682;50.874;3.656;2023-05-09T10:42:30;7.30;;;4.00;;
21046;SDS011;10682;50.874;3.656;2023-05-09T10:44:58;6.20;;;3.47;;
21046;SDS011;10682;50.874;3.656;2023-05-09T10:47:26;6.28;;;3.35;;
21046;SDS011;10682;50.874;3.656;2023-05-09T10:49:54;5.13;;;3.33;;
21046;SDS011;10682;50.874;3.656;2023-05-09T10:52:22;4.07;;;2.60;;
21046;SDS011;10682;50.874;3.656;2023-05-09T10:55:03;3.72;;;2.75;;
21046;SDS011;10682;50.874;3.656;2023-05-09T10:57:31;4.87;;;2.50;;
21046;SDS011;10682;50.874;3.656;2023-05-09T10:59:58;3.13;;;2.30;;
21046;SDS011;10682;50.874;3.656;2023-05-09T11:02:25;3.90;;;2.00;;
21046;SDS011;10682;50.874;3.656;2023-05-09T11:05:16;3.30;;;2.50;;
21046;SDS011;10682;50.874;3.656;2023-05-09T11:07:44;3.00;;;2.23;;
21046;SDS011;10682;50.874;3.656;2023-05-09T11:10:15;5.13;;;2.37;;
21046;SDS011;10682;50.874;3.656;2023-05-09T11:12:56;3.03;;;2.10;;
21046;SDS011;10682;50.874;3.656;2023-05-09T11:15:25;3.10;;;1.90;;
21046;SDS011;10682;50.874;3.656;2023-05-09T11:18:26;1.73;;;1.40;;
21046;SDS011;10682;50.874;3.656;2023-05-09T11:20:47;1.57;;;1.47;;
21046;SDS011;10682;50.874;3.656;2023-05-09T11:23:15;3.10;;;1.40;;
21046;SDS011;10682;50.874;3.656;2023-05-09T11:25:50;5.50;;;2.43;;
21046;SDS011;10682;50.874;3.656;2023-05-09T11:28:34;3.67;;;2.47;;
21046;SDS011;10682;50.874;3.656;2023-05-09T11:31:13;3.33;;;2.17;;
21046;SDS011;10682;50.874;3.656;2023-05-09T11:33:45;2.93;;;2.20;;
21046;SDS011;10682;50.874;3.656;2023-05-09T11:39:00;3.80;;;2.10;;
21046;SDS011;10682;50.874;3.656;2023-05-09T11:41:42;4.70;;;2.27;;
21046;SDS011;10682;50.874;3.656;2023-05-09T11:46:43;4.53;;;2.10;;
21046;SDS011;10682;50.874;3.656;2023-05-09T11:49:12;3.53;;;2.40;;
21046;SDS011;10682;50.874;3.656;2023-05-09T11:51:39;4.57;;;2.37;;
21046;SDS011;10682;50.874;3.656;2023-05-09T11:54:07;4.17;;;2.30;;
21046;SDS011;10682;50.874;3.656;2023-05-09T11:56:37;6.40;;;2.37;;
21046;SDS011;10682;50.874;3.656;2023-05-09T11:59:06;3.43;;;2.10;;
21046;SDS011;10682;50.874;3.656;2023-05-09T12:01:34;6.07;;;2.13;;
21046;SDS011;10682;50.874;3.656;2023-05-09T12:04:01;6.27;;;1.90;;
21046;SDS011;10682;50.874;3.656;2023-05-09T12:06:31;4.07;;;1.93;;
21046;SDS011;10682;50.874;3.656;2023-05-09T12:08:58;4.00;;;2.20;;
21046;SDS011;10682;50.874;3.656;2023-05-09T12:11:25;3.03;;;1.90;;
21046;SDS011;10682;50.874;3.656;2023-05-09T12:13:57;3.87;;;2.03;;
21046;SDS011;10682;50.874;3.656;2023-05-09T12:16:24;4.63;;;2.10;;
21046;SDS011;10682;50.874;3.656;2023-05-09T12:18:52;4.07;;;1.70;;
21046;SDS011;10682;50.874;3.656;2023-05-09T12:21:19;4.03;;;1.87;;
21046;SDS011;10682;50.874;3.656;2023-05-09T12:23:47;4.03;;;2.77;;
21046;SDS011;10682;50.874;3.656;2023-05-09T12:26:18;2.13;;;1.47;;
21046;SDS011;10682;50.874;3.656;2023-05-09T12:28:47;2.57;;;1.97;;
21046;SDS011;10682;50.874;3.656;2023-05-09T12:31:14;6.77;;;1.80;;
21046;SDS011;10682;50.874;3.656;2023-05-09T12:33:42;2.43;;;1.63;;
21046;SDS011;10682;50.874;3.656;2023-05-09T12:36:10;3.67;;;1.77;;
21046;SDS011;10682;50.874;3.656;2023-05-09T12:38:38;5.63;;;1.90;;
21046;SDS011;10682;50.874;3.656;2023-05-09T12:41:06;3.43;;;2.10;;
21046;SDS011;10682;50.874;3.656;2023-05-09T12:43:55;3.33;;;1.80;;
21046;SDS011;10682;50.874;3.656;2023-05-09T12:46:22;2.60;;;2.00;;
21046;SDS011;10682;50.874;3.656;2023-05-09T12:48:49;4.30;;;2.40;;
21046;SDS011;10682;50.874;3.656;2023-05-09T12:51:17;3.50;;;1.60;;
21046;SDS011;10682;50.874;3.656;2023-05-09T12:53:45;3.37;;;1.83;;
21046;SDS011;10682;50.874;3.656;2023-05-09T12:56:13;1.70;;;1.57;;
21046;SDS011;10682;50.874;3.656;2023-05-09T12:58:49;2.33;;;2.10;;
21046;SDS011;10682;50.874;3.656;2023-05-09T13:01:18;2.73;;;2.33;;
21046;SDS011;10682;50.874;3.656;2023-05-09T13:04:03;4.70;;;2.50;;
21046;SDS011;10682;50.874;3.656;2023-05-09T13:06:32;3.63;;;2.30;;
21046;SDS011;10682;50.874;3.656;2023-05-09T13:09:02;3.13;;;2.37;;
21046;SDS011;10682;50.874;3.656;2023-05-09T13:11:33;7.43;;;3.47;;
21046;SDS011;10682;50.874;3.656;2023-05-09T13:14:02;7.80;;;5.07;;
21046;SDS011;10682;50.874;3.656;2023-05-09T13:16:29;2.80;;;2.17;;
21046;SDS011;10682;50.874;3.656;2023-05-09T13:18:56;6.20;;;2.30;;
21046;SDS011;10682;50.874;3.656;2023-05-09T13:21:23;4.73;;;2.03;;
21046;SDS011;10682;50.874;3.656;2023-05-09T13:23:51;3.00;;;2.10;;
21046;SDS011;10682;50.874;3.656;2023-05-09T13:26:18;3.70;;;2.37;;
21046;SDS011;10682;50.874;3.656;2023-05-09T13:28:45;4.23;;;2.63;;
21046;SDS011;10682;50.874;3.656;2023-05-09T13:31:12;3.77;;;3.10;;
21046;SDS011;10682;50.874;3.656;2023-05-09T13:33:39;2.43;;;2.20;;
21046;SDS011;10682;50.874;3.656;2023-05-09T13:36:06;7.37;;;3.80;;
21046;SDS011;10682;50.874;3.656;2023-05-09T13:38:33;3.95;;;3.40;;
21046;SDS011;10682;50.874;3.656;2023-05-09T13:41:04;4.65;;;2.95;;
21046;SDS011;10682;50.874;3.656;2023-05-09T13:43:32;7.50;;;4.73;;
21046;SDS011;10682;50.874;3.656;2023-05-09T13:46:00;2.97;;;2.40;;
21046;SDS011;10682;50.874;3.656;2023-05-09T13:48:27;5.20;;;3.00;;
21046;SDS011;10682;50.874;3.656;2023-05-09T13:50:54;5.17;;;2.20;;
21046;SDS011;10682;50.874;3.656;2023-05-09T13:53:22;1.80;;;1.60;;
21046;SDS011;10682;50.874;3.656;2023-05-09T13:55:49;2.30;;;1.40;;
21046;SDS011;10682;50.874;3.656;2023-05-09T13:58:17;2.67;;;1.60;;
21046;SDS011;10682;50.874;3.656;2023-05-09T14:00:44;3.38;;;1.83;;
21046;SDS011;10682;50.874;3.656;2023-05-09T14:03:11;3.92;;;2.08;;
21046;SDS011;10682;50.874;3.656;2023-05-09T14:05:38;2.70;;;2.20;;
21046;SDS011;10682;50.874;3.656;2023-05-09T14:08:05;5.28;;;3.10;;
21046;SDS011;10682;50.874;3.656;2023-05-09T14:10:33;2.53;;;1.70;;
21046;SDS011;10682;50.874;3.656;2023-05-09T14:13:00;3.47;;;2.17;;
21046;SDS011;10682;50.874;3.656;2023-05-09T14:15:27;2.13;;;2.00;;
21046;SDS011;10682;50.874;3.656;2023-05-09T14:17:55;6.00;;;1.80;;
21046;SDS011;10682;50.874;3.656;2023-05-09T14:20:22;2.87;;;2.57;;
21046;SDS011;10682;50.874;3.656;2023-05-09T14:22:49;3.67;;;1.90;;
21046;SDS011;10682;50.874;3.656;2023-05-09T14:25:17;4.17;;;2.00;;
21046;SDS011;10682;50.874;3.656;2023-05-09T14:27:44;3.47;;;2.08;;
21046;SDS011;10682;50.874;3.656;2023-05-09T14:30:11;2.88;;;2.58;;
21046;SDS011;10682;50.874;3.656;2023-05-09T14:32:38;3.33;;;3.00;;
21046;SDS011;10682;50.874;3.656;2023-05-09T14:35:06;5.60;;;4.00;;
21046;SDS011;10682;50.874;3.656;2023-05-09T14:37:33;4.73;;;4.20;;
21046;SDS011;10682;50.874;3.656;2023-05-09T14:40:01;6.22;;;5.47;;
21046;SDS011;10682;50.874;3.656;2023-05-09T14:42:30;5.28;;;4.38;;
21046;SDS011;10682;50.874;3.656;2023-05-09T14:44:58;6.43;;;4.85;;
21046;SDS011;10682;50.874;3.656;2023-05-09T14:47:25;7.75;;;5.93;;
21046;SDS011;10682;50.874;3.656;2023-05-09T14:49:52;9.27;;;6.00;;
21046;SDS011;10682;50.874;3.656;2023-05-09T14:52:20;8.65;;;6.47;;
21046;SDS011;10682;50.874;3.656;2023-05-09T14:54:47;9.63;;;6.80;;
21046;SDS011;10682;50.874;3.656;2023-05-09T14:57:14;6.80;;;5.68;;
21046;SDS011;10682;50.874;3.656;2023-05-09T14:59:41;11.43;;;8.50;;
21046;SDS011;10682;50.874;3.656;2023-05-09T15:02:08;10.38;;;7.88;;
21046;SDS011;10682;50.874;3.656;2023-05-09T15:04:35;9.00;;;5.90;;